Time;durP1;ratioP1;P1;durP2;ratioP2;P2;SDS_P1;SDS_P2;PMS_P1;PMS_P2;Temp;Humidity;BMP_temperature;BMP_pressure;BME280_temperature;BME280_humidity;BME280_pressure;Samples;Min_cycle;Max_cycle;Signal;HPM_P1;HPM_P2
2021/01/05 00:02:28;;;;;;;30.33;18.08;;;;;;;1.21;100.00;100834.88;5244042;28;20024;-81
2021/01/05 00:04:59;;;;;;;32.75;18.10;;;;;;;1.18;100.00;100821.97;5243933;28;20028;-79
2021/01/05 00:07:29;;;;;;;27.83;16.60;;;;;;;1.17;100.00;100827.09;5243546;28;20039;-79
2021/01/05 00:09:59;;;;;;;33.13;18.85;;;;;;;1.17;100.00;100821.97;5250175;28;20040;-79
2021/01/05 00:12:29;;;;;;;35.08;19.55;;;;;;;1.19;100.00;100825.41;5243391;28;20036;-78
2021/01/05 00:15:00;;;;;;;34.55;20.13;;;;;;;1.21;100.00;100821.16;5243670;28;20024;-81
2021/01/05 00:17:30;;;;;;;35.85;20.80;;;;;;;1.22;100.00;100825.44;5243468;28;20039;-83
2021/01/05 00:20:06;;;;;;;41.42;21.17;;;;;;;1.17;100.00;100822.84;5242748;28;20487;-80
2021/01/05 00:22:36;;;;;;;40.97;21.58;;;;;;;1.21;100.00;100824.56;5243908;28;20071;-83
2021/01/05 00:25:08;;;;;;;41.38;22.25;;;;;;;1.35;100.00;100820.38;5244111;28;20055;-83
2021/01/05 00:27:39;;;;;;;44.15;22.67;;;;;;;1.25;100.00;100821.16;5243668;28;20032;-83
2021/01/05 00:30:21;;;;;;;41.47;22.90;;;;;;;1.13;100.00;100821.09;5243679;28;20032;-80
2021/01/05 00:32:53;;;;;;;40.47;22.15;;;;;;;1.19;100.00;100822.81;5243352;28;20538;-82
2021/01/05 00:35:27;;;;;;;45.25;22.80;;;;;;;1.17;100.00;100824.53;5243131;28;20368;-80
2021/01/05 00:37:58;;;;;;;44.83;22.63;;;;;;;1.20;100.00;100825.41;5243212;28;20040;-80
2021/01/05 00:40:28;;;;;;;46.17;23.30;;;;;;;1.30;100.00;100824.63;5242969;28;20028;-79
2021/01/05 00:42:59;;;;;;;48.55;23.48;;;;;;;1.24;100.00;100818.59;5243095;28;20091;-85
2021/01/05 00:45:34;;;;;;;42.65;22.55;;;;;;;1.16;100.00;100821.13;5243397;28;20025;-80
2021/01/05 00:48:06;;;;;;;46.22;23.33;;;;;;;1.16;100.00;100815.09;5243391;28;20020;-80
2021/01/05 00:50:37;;;;;;;44.22;23.25;;;;;;;1.14;100.00;100822.81;5243327;28;20024;-81
2021/01/05 00:53:07;;;;;;;49.85;24.23;;;;;;;1.13;100.00;100815.97;5242946;28;20021;-79
2021/01/05 00:55:37;;;;;;;49.03;24.15;;;;;;;1.15;100.00;100819.41;5243978;28;20102;-83
2021/01/05 00:58:07;;;;;;;48.45;23.77;;;;;;;1.16;100.00;100823.69;5242969;28;20043;-83
2021/01/05 01:00:38;;;;;;;47.03;24.05;;;;;;;1.20;100.00;100822.84;5243249;28;20039;-81
2021/01/05 01:03:08;;;;;;;48.80;23.80;;;;;;;1.22;100.00;100833.16;5242993;28;20025;-78
2021/01/05 01:05:38;;;;;;;46.55;23.70;;;;;;;1.25;100.00;100821.16;5243244;28;20031;-78
2021/01/05 01:08:09;;;;;;;47.17;23.23;;;;;;;1.25;100.00;100834.03;5242961;28;20024;-78
2021/01/05 01:10:40;;;;;;;49.65;24.45;;;;;;;1.16;100.00;100815.09;5250469;28;20062;-79
2021/01/05 01:13:11;;;;;;;47.00;23.67;;;;;;;1.24;100.00;100828.88;5243216;28;20048;-86
2021/01/05 01:15:41;;;;;;;45.78;24.52;;;;;;;1.15;100.00;100821.97;5242630;28;20021;-78
2021/01/05 01:18:12;;;;;;;53.80;25.80;;;;;;;1.19;100.00;100826.28;5242855;28;20683;-80
2021/01/05 01:20:42;;;;;;;50.00;25.00;;;;;;;1.21;100.00;100822.00;5242499;28;20032;-82
2021/01/05 01:23:12;;;;;;;53.90;25.88;;;;;;;1.28;100.00;100805.75;5242798;28;20042;-83
2021/01/05 01:25:43;;;;;;;53.92;26.48;;;;;;;1.35;100.00;100812.63;5234954;28;20025;-79
2021/01/05 01:28:13;;;;;;;49.78;24.17;;;;;;;1.34;100.00;100818.63;5228284;28;20041;-82
2021/01/05 01:30:43;;;;;;;49.63;23.98;;;;;;;1.22;100.00;100815.16;5239966;28;20477;-81
2021/01/05 01:33:14;;;;;;;48.60;24.25;;;;;;;1.22;100.00;100816.00;5242348;28;20099;-80
2021/01/05 01:35:44;;;;;;;51.38;23.63;;;;;;;1.36;100.00;100816.94;5243010;28;20544;-80
2021/01/05 01:38:14;;;;;;;52.20;24.85;;;;;;;1.25;100.00;100826.31;5242727;28;20083;-81
2021/01/05 01:40:45;;;;;;;55.22;25.08;;;;;;;1.24;100.00;100834.88;5242655;28;20570;-84
2021/01/05 01:43:15;;;;;;;60.70;26.65;;;;;;;1.28;100.00;100823.78;5242475;28;20029;-81
2021/01/05 01:45:45;;;;;;;62.45;25.92;;;;;;;1.24;100.00;100826.31;5245513;28;20024;-78
2021/01/05 01:48:16;;;;;;;60.67;25.98;;;;;;;1.19;100.00;100831.44;5246794;28;20078;-78
2021/01/05 01:50:46;;;;;;;54.65;24.63;;;;;;;1.19;100.00;100836.56;5246657;28;20025;-78
2021/01/05 01:53:45;;;;;;;57.42;25.67;;;;;;;1.14;100.00;100838.25;5246746;28;20021;-79
2021/01/05 01:56:38;;;;;;;65.75;27.45;;;;;;;1.16;100.00;100836.56;5246579;28;20028;-81
2021/01/05 01:59:37;;;;;;;62.03;26.85;;;;;;;1.13;100.00;100830.53;5245190;28;20059;-80
2021/01/05 02:02:11;;;;;;;66.07;27.30;;;;;;;1.11;100.00;100838.25;5246500;28;20028;-78
2021/01/05 02:04:59;;;;;;;61.47;27.33;;;;;;;1.15;100.00;100839.97;5246395;28;20027;-78
2021/01/05 02:08:08;;;;;;;61.75;28.02;;;;;;;1.20;100.00;100832.31;5245724;28;20029;-81
2021/01/05 02:10:52;;;;;;;62.10;28.02;;;;;;;1.12;100.00;100839.97;5246143;28;20425;-82
2021/01/05 02:13:50;;;;;;;63.25;26.67;;;;;;;1.15;100.00;100841.69;5245634;28;20024;-81
2021/01/05 02:16:58;;;;;;;63.35;26.65;;;;;;;1.11;100.00;100835.69;5246441;28;20498;-78
2021/01/05 02:19:52;;;;;;;57.38;26.33;;;;;;;1.11;100.00;100834.81;5246074;28;20058;-81
2021/01/05 02:22:41;;;;;;;58.35;25.77;;;;;;;1.20;100.00;100835.72;5246341;28;20020;-79
2021/01/05 02:25:28;;;;;;;62.17;27.50;;;;;;;1.13;100.00;100839.13;5245622;28;20094;-80
2021/01/05 02:28:02;;;;;;;64.63;27.67;;;;;;;1.16;100.00;100826.25;5244696;28;20032;-78
2021/01/05 02:30:45;;;;;;;62.80;27.88;;;;;;;1.14;100.00;100838.25;5245720;28;20027;-78
2021/01/05 02:33:36;;;;;;;65.78;27.48;;;;;;;1.23;100.00;100825.44;5245973;28;20028;-81
2021/01/05 02:36:43;;;;;;;69.70;27.95;;;;;;;1.19;100.00;100831.44;5245505;28;20044;-81
2021/01/05 02:39:43;;;;;;;69.30;29.38;;;;;;;1.20;100.00;100833.13;5249696;28;20032;-81
2021/01/05 02:42:47;;;;;;;67.97;29.02;;;;;;;1.20;100.00;100833.13;5237459;28;20501;-79
2021/01/05 02:45:26;;;;;;;60.83;27.70;;;;;;;1.21;100.00;100834.88;5244342;28;20032;-80
2021/01/05 02:48:27;;;;;;;62.40;27.83;;;;;;;1.28;100.00;100830.63;5245435;28;20025;-81
2021/01/05 02:51:28;;;;;;;61.90;28.42;;;;;;;1.27;100.00;100828.91;5245614;28;20025;-85
2021/01/05 02:54:20;;;;;;;61.83;27.02;;;;;;;1.23;100.00;100833.16;5245358;28;20028;-78
2021/01/05 02:57:28;;;;;;;55.10;25.88;;;;;;;1.37;100.00;100830.69;5245296;28;20078;-80
2021/01/05 03:00:32;;;;;;;61.83;27.27;;;;;;;1.27;100.00;100834.88;5244171;28;20062;-82
2021/01/05 03:03:31;;;;;;;63.53;27.88;;;;;;;1.24;100.00;100823.75;5245133;28;20469;-85
2021/01/05 03:06:19;;;;;;;58.92;25.27;;;;;;;1.31;100.00;100810.03;5244747;28;20028;-80
2021/01/05 03:09:39;;;;;;;61.13;26.50;;;;;;;1.19;100.00;100812.53;5243971;28;20495;-84
2021/01/05 03:12:22;;;;;;;63.55;27.17;;;;;;;1.24;100.00;100814.28;5191917;28;20470;-78
2021/01/05 03:14:58;;;;;;;65.68;27.40;;;;;;;1.20;100.00;100817.69;5244532;28;20062;-80
2021/01/05 03:17:30;;;;;;;;;;;;;;;1.18;100.00;100809.13;5245850;28;20104;-81
2021/01/05 03:20:05;;;;;;;77.95;28.88;;;;;;;1.19;100.00;100820.25;5244898;28;19908;-80
2021/01/05 03:22:39;;;;;;;72.72;28.70;;;;;;;1.19;100.00;100821.13;5245187;28;20032;-78
2021/01/05 03:25:10;;;;;;;73.70;29.27;;;;;;;1.17;100.00;100819.38;5245007;28;20036;-78
2021/01/05 03:27:41;;;;;;;66.72;28.90;;;;;;;1.35;100.00;100816.91;5244512;28;20063;-79
2021/01/05 03:30:25;;;;;;;72.60;28.70;;;;;;;1.15;100.00;100814.25;5245024;28;20079;-79
2021/01/05 03:32:55;;;;;;;60.75;26.77;;;;;;;1.22;100.00;100818.56;5243148;28;20078;-78
2021/01/05 03:35:27;;;;;;;70.18;28.75;;;;;;;1.24;100.00;100822.00;5243280;28;20071;-79
2021/01/05 03:37:58;;;;;;;66.35;28.90;;;;;;;1.20;100.00;100820.28;5244501;28;20367;-80
2021/01/05 03:40:28;;;;;;;70.80;29.38;;;;;;;1.22;100.00;100821.13;5244962;28;20131;-78
2021/01/05 03:42:59;;;;;;;67.50;28.58;;;;;;;1.17;100.00;100825.41;5244042;28;20111;-81
2021/01/05 03:45:31;;;;;;;71.95;29.63;;;;;;;1.20;100.00;100822.84;5244580;28;20039;-82
2021/01/05 03:48:02;;;;;;;78.88;30.58;;;;;;;1.23;100.00;100830.59;5244217;28;20053;-82
2021/01/05 03:50:32;;;;;;;76.82;29.60;;;;;;;1.18;100.00;100829.69;5243811;28;20539;-83
2021/01/05 03:53:03;;;;;;;74.15;30.30;;;;;;;1.24;100.00;100828.88;5244250;28;20402;-81
2021/01/05 03:55:33;;;;;;;81.60;30.50;;;;;;;1.18;100.00;100824.56;5243790;28;20505;-81
2021/01/05 03:58:03;;;;;;;87.53;30.90;;;;;;;1.15;100.00;100828.81;5244171;28;20027;-82
2021/01/05 04:00:34;;;;;;;82.10;29.50;;;;;;;1.15;100.00;100831.38;5243730;28;20074;-81
2021/01/05 04:03:04;;;;;;;85.97;30.92;;;;;;;1.17;100.00;100827.97;5244068;28;20390;-78
2021/01/05 04:05:34;;;;;;;75.78;29.65;;;;;;;1.15;100.00;100833.97;5244094;28;20028;-79
2021/01/05 04:08:05;;;;;;;83.30;31.27;;;;;;;1.15;100.00;100824.53;5243038;28;20043;-79
2021/01/05 04:10:35;;;;;;;84.22;32.47;;;;;;;1.15;100.00;100832.25;5243493;28;20517;-81
2021/01/05 04:13:06;;;;;;;79.10;29.45;;;;;;;1.08;100.00;100829.66;5243430;28;20028;-79
2021/01/05 04:15:36;;;;;;;75.68;28.73;;;;;;;1.23;100.00;100819.44;5242459;28;20052;-83
2021/01/05 04:18:08;;;;;;;61.42;24.73;;;;;;;1.13;100.00;100820.22;5243485;28;20032;-81
2021/01/05 04:20:38;;;;;;;55.20;22.80;;;;;;;1.16;100.00;100820.25;5243758;28;20052;-82
2021/01/05 04:23:09;;;;;;;54.55;24.52;;;;;;;1.09;100.00;100816.75;5243397;28;20020;-79
2021/01/05 04:25:39;;;;;;;63.67;25.48;;;;;;;1.11;100.00;100824.50;5243618;28;20081;-81
2021/01/05 04:28:09;;;;;;;60.60;25.63;;;;;;;1.06;100.00;100827.03;5243699;28;20467;-82
2021/01/05 04:30:39;;;;;;;60.22;24.92;;;;;;;1.10;100.00;100817.63;5243393;28;20024;-80
2021/01/05 04:33:12;;;;;;;57.70;24.17;;;;;;;1.12;100.00;100821.09;5243547;28;20031;-78
2021/01/05 04:35:43;;;;;;;64.70;24.55;;;;;;;1.08;100.00;100830.47;5243465;28;20438;-81
2021/01/05 04:38:13;;;;;;;62.15;24.38;;;;;;;1.09;100.00;100828.78;5243257;28;20036;-82
2021/01/05 04:40:47;;;;;;;64.82;24.88;;;;;;;1.17;100.00;100821.97;5242843;28;20470;-80
2021/01/05 04:43:36;;;;;;;61.55;25.17;;;;;;;1.38;100.00;100819.53;5243228;28;20030;-85
2021/01/05 04:46:15;;;;;;;62.53;25.30;;;;;;;1.36;100.00;100824.66;5243308;28;20025;-82
2021/01/05 04:49:11;;;;;;;53.00;23.30;;;;;;;1.56;100.00;100823.03;5243404;28;20081;-81
2021/01/05 04:52:11;;;;;;;53.80;21.90;;;;;;;1.61;100.00;100820.47;5242491;28;20070;-81
2021/01/05 04:55:01;;;;;;;46.20;19.88;;;;;;;1.65;100.00;100827.34;5239569;28;20040;-81
2021/01/05 04:57:35;;;;;;;42.60;19.95;;;;;;;1.63;100.00;100819.66;5244162;28;20020;-83
2021/01/05 05:00:26;;;;;;;41.42;19.58;;;;;;;1.54;100.00;100819.59;5244313;28;20034;-79
2021/01/05 05:02:57;;;;;;;40.10;18.38;;;;;;;1.57;100.00;100817.03;5244467;28;20024;-78
2021/01/05 05:05:52;;;;;;;39.70;17.90;;;;;;;1.54;100.00;100816.19;5244359;28;20031;-78
2021/01/05 05:08:31;;;;;;;36.40;17.92;;;;;;;1.49;100.00;100825.56;5244657;28;20274;-84
2021/01/05 05:11:06;;;;;;;34.88;16.98;;;;;;;1.32;100.00;100822.94;5244440;28;20120;-78
2021/01/05 05:13:49;;;;;;;35.78;17.13;;;;;;;1.45;100.00;100829.88;5244717;28;20020;-78
2021/01/05 05:16:28;;;;;;;34.83;16.77;;;;;;;1.50;100.00;100828.16;5244627;28;20522;-78
2021/01/05 05:19:29;;;;;;;35.33;17.50;;;;;;;1.52;100.00;100826.44;5244525;28;20028;-81
2021/01/05 05:22:12;;;;;;;38.38;18.25;;;;;;;1.43;100.00;100822.97;5244293;28;20026;-78
2021/01/05 05:25:17;;;;;;;34.33;17.10;;;;;;;1.51;100.00;100824.72;5244629;28;20060;-78
2021/01/05 05:27:57;;;;;;;32.97;16.92;;;;;;;1.40;100.00;100823.81;5179555;28;20034;-78
2021/01/05 05:30:40;;;;;;;39.15;18.45;;;;;;;1.43;100.00;100826.41;5237641;28;20029;-78
2021/01/05 05:33:20;;;;;;;38.53;16.77;;;;;;;1.49;100.00;100826.44;5243983;28;20024;-77
2021/01/05 05:36:28;;;;;;;34.53;16.67;;;;;;;1.57;100.00;100829.91;5244264;28;20093;-80
2021/01/05 05:39:10;;;;;;;30.92;15.18;;;;;;;1.79;100.00;100827.41;5244299;28;20024;-78
2021/01/05 05:41:58;;;;;;;32.35;15.98;;;;;;;1.63;100.00;100832.53;5244164;28;20071;-82
2021/01/05 05:44:40;;;;;;;30.20;14.57;;;;;;;1.73;100.00;100829.09;5243788;28;20505;-83
2021/01/05 05:47:21;;;;;;;30.92;14.60;;;;;;;1.70;100.00;100823.94;5243091;28;20024;-80
2021/01/05 05:50:10;;;;;;;30.08;14.55;;;;;;;1.61;100.00;100831.63;5243987;28;20040;-80
2021/01/05 05:53:05;;;;;;;28.40;14.13;;;;;;;1.68;100.00;100828.25;5243808;28;20050;-78
2021/01/05 05:55:58;;;;;;;28.65;13.85;;;;;;;1.56;100.00;100833.34;5243948;28;20023;-82
2021/01/05 05:58:33;;;;;;;30.92;13.45;;;;;;;1.73;100.00;100826.53;5243894;28;20648;-78
2021/01/05 06:01:09;;;;;;;26.00;12.68;;;;;;;1.64;100.00;100826.50;5244377;28;20039;-82
2021/01/05 06:03:41;;;;;;;25.02;12.95;;;;;;;1.54;100.00;100824.75;5242431;28;20031;-80
2021/01/05 06:06:11;;;;;;;26.95;13.98;;;;;;;1.57;100.00;100832.47;5244393;28;20020;-79
2021/01/05 06:08:41;;;;;;;28.98;14.88;;;;;;;1.52;100.00;100834.19;5242305;28;20029;-81
2021/01/05 06:11:11;;;;;;;29.38;13.75;;;;;;;1.64;100.00;100826.50;5244065;28;20494;-79
2021/01/05 06:13:42;;;;;;;26.95;13.07;;;;;;;1.71;100.00;100823.09;5244288;28;20020;-78
2021/01/05 06:16:12;;;;;;;25.52;13.18;;;;;;;1.63;100.00;100832.53;5243659;28;20036;-79
2021/01/05 06:18:42;;;;;;;27.83;13.98;;;;;;;1.64;100.00;100825.63;5243632;28;20082;-78
2021/01/05 06:21:13;;;;;;;27.73;14.02;;;;;;;1.74;100.00;100830.81;5242365;28;20020;-78
2021/01/05 06:23:43;;;;;;;29.58;13.75;;;;;;;1.60;100.00;100829.91;5243704;28;20032;-78
2021/01/05 06:26:17;;;;;;;26.08;14.40;;;;;;;1.59;100.00;100830.75;5243543;28;20033;-81
2021/01/05 06:28:48;;;;;;;35.35;15.70;;;;;;;1.53;100.00;100827.28;5243842;28;20437;-85
2021/01/05 06:31:18;;;;;;;37.33;17.23;;;;;;;1.49;100.00;100844.47;5243763;28;20028;-80
2021/01/05 06:33:48;;;;;;;44.63;19.00;;;;;;;1.43;100.00;100835.84;5233456;28;20070;-78
2021/01/05 06:36:19;;;;;;;42.90;19.45;;;;;;;1.36;100.00;100839.22;5226580;28;20029;-78
2021/01/05 06:38:49;;;;;;;49.95;20.80;;;;;;;1.39;100.00;100842.69;5226087;28;20032;-82
2021/01/05 06:41:19;;;;;;;52.63;22.10;;;;;;;1.33;100.00;100840.09;5226107;28;20104;-79
2021/01/05 06:43:50;;;;;;;57.85;22.52;;;;;;;1.28;100.00;100849.50;5226093;28;20029;-81
2021/01/05 06:46:20;;;;;;;66.60;23.70;;;;;;;1.22;100.00;100846.88;5225363;28;20453;-80
2021/01/05 06:48:50;;;;;;;67.63;25.02;;;;;;;1.33;100.00;100847.81;5225365;28;20035;-79
2021/01/05 06:51:21;;;;;;;65.30;25.00;;;;;;;1.36;100.00;100839.22;5224808;28;20025;-78
2021/01/05 06:53:51;;;;;;;62.33;24.13;;;;;;;1.48;100.00;100840.16;5223858;28;20503;-78
2021/01/05 06:56:21;;;;;;;63.88;23.88;;;;;;;1.38;100.00;100838.38;5225875;28;20052;-79
2021/01/05 06:58:51;;;;;;;61.53;23.67;;;;;;;1.36;100.00;100842.69;5224947;28;20037;-77
2021/01/05 07:01:22;;;;;;;69.50;23.85;;;;;;;1.44;100.00;100843.56;5225283;28;20025;-81
2021/01/05 07:03:52;;;;;;;72.72;25.65;;;;;;;1.28;100.00;100849.50;5224786;28;20025;-79
2021/01/05 07:06:22;;;;;;;67.13;24.63;;;;;;;1.44;100.00;100850.44;5223946;28;20076;-81
2021/01/05 07:08:52;;;;;;;67.38;24.25;;;;;;;1.43;100.00;100861.59;5226973;28;20479;-80
2021/01/05 07:11:23;;;;;;;59.13;23.23;;;;;;;1.47;100.00;100853.03;5251061;28;20024;-82
2021/01/05 07:13:53;;;;;;;68.30;24.27;;;;;;;1.41;100.00;100848.69;5244048;28;20039;-79
2021/01/05 07:16:23;;;;;;;68.13;24.88;;;;;;;1.46;100.00;100854.75;5245576;28;20024;-79
2021/01/05 07:18:53;;;;;;;65.13;25.15;;;;;;;1.47;100.00;100855.59;5245316;28;20020;-79
2021/01/05 07:21:24;;;;;;;63.22;24.60;;;;;;;1.63;100.00;100865.13;5245291;28;20044;-78
2021/01/05 07:23:55;;;;;;;58.78;24.73;;;;;;;1.51;100.00;100855.63;5245394;28;20513;-82
2021/01/05 07:26:25;;;;;;;64.20;24.30;;;;;;;1.49;100.00;100856.47;5245537;28;20020;-80
2021/01/05 07:28:55;;;;;;;64.55;24.77;;;;;;;1.43;100.00;100865.00;5243962;28;20024;-80
2021/01/05 07:31:26;;;;;;;64.15;25.27;;;;;;;1.57;100.00;100863.38;5245402;28;20029;-79
2021/01/05 07:33:56;;;;;;;58.78;23.35;;;;;;;1.65;100.00;100855.69;5245030;28;20032;-79
2021/01/05 07:36:33;;;;;;;53.70;22.20;;;;;;;1.67;100.00;100852.28;5245349;28;20024;-82
2021/01/05 07:39:26;;;;;;;57.90;23.05;;;;;;;1.66;100.00;100854.84;5245549;28;20403;-77
2021/01/05 07:42:16;;;;;;;47.08;20.58;;;;;;;1.81;100.00;100863.50;5245013;28;20042;-77
2021/01/05 07:44:48;;;;;;;47.13;20.25;;;;;;;1.65;100.00;100866.88;5245020;28;20036;-78
2021/01/05 07:47:21;;;;;;;50.83;22.95;;;;;;;1.57;100.00;100860.81;5244511;28;20390;-78
2021/01/05 07:49:51;;;;;;;50.15;22.48;;;;;;;1.58;100.00;100872.81;5244556;28;20028;-80
2021/01/05 07:52:37;;;;;;;56.05;23.77;;;;;;;1.63;100.00;100871.16;5244560;28;20556;-80
2021/01/05 07:55:14;;;;;;;44.80;21.75;;;;;;;1.74;100.00;100878.94;5244842;28;20020;-78
2021/01/05 07:57:45;;;;;;;50.72;22.15;;;;;;;1.72;100.00;100875.50;5244229;28;20093;-78
2021/01/05 08:00:24;;;;;;;46.08;20.75;;;;;;;1.82;100.00;100881.53;5244353;28;20482;-78
2021/01/05 08:02:56;;;;;;;47.35;21.70;;;;;;;1.66;100.00;100878.88;5244225;28;20033;-81
2021/01/05 08:05:28;;;;;;;45.13;21.08;;;;;;;1.74;100.00;100879.78;5244033;28;20056;-77
2021/01/05 08:07:58;;;;;;;48.42;22.20;;;;;;;1.62;100.00;100878.84;5243823;28;20115;-78
2021/01/05 08:10:31;;;;;;;45.53;20.75;;;;;;;1.62;100.00;100872.00;5244056;28;20111;-77
2021/01/05 08:13:05;;;;;;;44.08;20.50;;;;;;;1.65;100.00;100886.59;5242889;28;20126;-79
2021/01/05 08:15:36;;;;;;;48.70;21.90;;;;;;;1.60;100.00;100885.72;5244407;28;20486;-82
2021/01/05 08:18:07;;;;;;;47.78;21.65;;;;;;;1.62;100.00;100890.03;5243936;28;20393;-80
2021/01/05 08:20:37;;;;;;;51.45;22.67;;;;;;;1.63;100.00;100886.59;5243960;28;20111;-78
2021/01/05 08:23:07;;;;;;;48.42;21.05;;;;;;;1.72;100.00;100881.47;5243753;28;20043;-80
2021/01/05 08:25:38;;;;;;;45.88;21.38;;;;;;;1.71;100.00;100887.50;5243856;28;20027;-78
2021/01/05 08:28:08;;;;;;;44.25;20.55;;;;;;;1.65;100.00;100882.31;5242546;28;20483;-77
2021/01/05 08:30:39;;;;;;;45.63;20.42;;;;;;;1.59;100.00;100890.00;5243431;28;20028;-78
2021/01/05 08:33:12;;;;;;;50.30;21.50;;;;;;;1.70;100.00;100878.03;5243949;28;20028;-79
2021/01/05 08:35:47;;;;;;;46.35;20.50;;;;;;;1.61;100.00;100879.72;5243672;28;20028;-78
2021/01/05 08:38:17;;;;;;;48.30;22.25;;;;;;;1.67;100.00;100885.75;5243876;28;20028;-82
2021/01/05 08:40:47;;;;;;;50.00;20.65;;;;;;;1.64;100.00;100883.19;5243269;28;20478;-82
2021/01/05 08:43:17;;;;;;;54.75;22.45;;;;;;;1.64;100.00;100892.59;5243069;28;20052;-80
2021/01/05 08:45:48;;;;;;;57.58;22.92;;;;;;;1.64;100.00;100890.91;5243559;28;20032;-79
2021/01/05 08:48:18;;;;;;;53.28;22.90;;;;;;;1.63;100.00;100891.75;5243131;28;20545;-81
2021/01/05 08:50:51;;;;;;;51.08;21.60;;;;;;;1.74;100.00;100895.22;5243520;28;20029;-80
2021/01/05 08:53:22;;;;;;;49.10;22.58;;;;;;;1.78;100.00;100896.97;5243798;28;20479;-77
2021/01/05 08:55:53;;;;;;;49.75;21.52;;;;;;;1.74;100.00;100891.81;5243107;28;20028;-80
2021/01/05 08:58:23;;;;;;;49.83;21.55;;;;;;;1.86;100.00;100890.13;5243372;28;20024;-78
2021/01/05 09:00:53;;;;;;;43.38;21.00;;;;;;;1.90;100.00;100891.88;5243311;28;20085;-79
2021/01/05 09:03:23;;;;;;;46.20;20.05;;;;;;;1.68;100.00;100895.22;5243443;28;20028;-78
2021/01/05 09:05:54;;;;;;;50.78;21.35;;;;;;;1.62;100.00;100889.16;5241938;28;20025;-81
2021/01/05 09:08:30;;;;;;;48.55;21.63;;;;;;;1.66;100.00;100896.91;5243500;28;20593;-81
2021/01/05 09:11:03;;;;;;;53.88;22.50;;;;;;;1.61;100.00;100896.00;5243553;28;20658;-81
2021/01/05 09:13:34;;;;;;;55.60;22.38;;;;;;;1.70;100.00;100893.50;5241947;28;20039;-77
2021/01/05 09:16:04;;;;;;;46.35;20.02;;;;;;;1.62;100.00;100896.88;5242680;28;20401;-80
2021/01/05 09:18:35;;;;;;;47.88;20.08;;;;;;;1.70;100.00;100893.50;5242997;28;20425;-81
2021/01/05 09:21:09;;;;;;;46.75;20.10;;;;;;;1.62;100.00;100890.03;5243510;28;20104;-78
2021/01/05 09:23:40;;;;;;;47.25;19.98;;;;;;;1.58;100.00;100897.72;5243505;28;20055;-77
2021/01/05 09:26:17;;;;;;;43.20;18.17;;;;;;;1.63;100.00;100901.19;5243688;28;20561;-77
2021/01/05 09:28:48;;;;;;;50.90;19.65;;;;;;;1.60;100.00;100902.00;5243566;28;20024;-77
2021/01/05 09:31:20;;;;;;;46.22;19.83;;;;;;;1.63;100.00;100901.19;5241513;28;20517;-77
2021/01/05 09:33:50;;;;;;;43.17;19.55;;;;;;;1.62;100.00;100909.75;5242671;28;20035;-77
2021/01/05 09:36:32;;;;;;;43.28;19.60;;;;;;;1.62;100.00;100904.63;5243716;28;20016;-80
2021/01/05 09:39:08;;;;;;;42.22;19.20;;;;;;;1.70;100.00;100908.94;5243612;28;20048;-79
2021/01/05 09:41:48;;;;;;;45.13;19.50;;;;;;;1.75;100.00;100902.09;5243273;28;20052;-80
2021/01/05 09:44:18;;;;;;;45.60;19.25;;;;;;;1.79;100.00;100904.69;5222279;28;20029;-80
2021/01/05 09:46:53;;;;;;;43.72;19.42;;;;;;;1.70;100.00;100901.22;5222544;28;20467;-79
2021/01/05 09:49:25;;;;;;;44.75;18.65;;;;;;;1.76;100.00;100900.41;5222097;28;20021;-80
2021/01/05 09:52:00;;;;;;;46.35;19.20;;;;;;;1.66;100.00;100901.19;5233643;28;20020;-79
2021/01/05 09:54:31;;;;;;;48.53;19.80;;;;;;;1.77;100.00;100894.38;5243001;28;20032;-78
2021/01/05 09:57:01;;;;;;;46.03;19.80;;;;;;;1.83;100.00;100895.28;5242798;28;20029;-81
2021/01/05 09:59:32;;;;;;;48.80;20.17;;;;;;;1.88;100.00;100897.03;5242863;28;20153;-79
2021/01/05 10:02:03;;;;;;;43.97;18.70;;;;;;;1.86;100.00;100893.56;5242686;28;20016;-80
2021/01/05 10:04:34;;;;;;;42.88;19.05;;;;;;;2.02;100.00;100892.75;5241868;28;20119;-82
2021/01/05 10:07:04;;;;;;;42.95;18.50;;;;;;;2.08;100.00;100894.50;5245948;28;20442;-82
2021/01/05 10:09:36;;;;;;;51.90;22.23;;;;;;;2.19;100.00;100885.09;5246450;28;20509;-80
2021/01/05 10:12:07;;;;;;;39.60;16.88;;;;;;;1.98;100.00;100893.63;5246774;28;20505;-80
2021/01/05 10:14:37;;;;;;;36.95;16.50;;;;;;;1.99;100.00;100892.75;5246516;28;20036;-80
2021/01/05 10:17:07;;;;;;;46.10;18.67;;;;;;;1.90;100.00;100889.28;5246639;28;20017;-80
2021/01/05 10:19:38;;;;;;;46.13;19.02;;;;;;;1.87;100.00;100894.44;5249862;28;20031;-83
2021/01/05 10:22:08;;;;;;;45.25;19.17;;;;;;;1.88;100.00;100896.16;5246451;28;20434;-79
2021/01/05 10:24:38;;;;;;;44.97;17.75;;;;;;;2.00;100.00;100891.06;5246175;28;20074;-77
2021/01/05 10:27:08;;;;;;;43.22;16.95;;;;;;;2.17;100.00;100895.41;5246196;28;20548;-78
2021/01/05 10:29:39;;;;;;;35.58;16.20;;;;;;;2.08;100.00;100886.78;5246156;28;20028;-82
2021/01/05 10:32:09;;;;;;;34.95;15.38;;;;;;;2.31;100.00;100885.16;5246523;28;20029;-81
2021/01/05 10:34:39;;;;;;;38.67;15.57;;;;;;;2.32;100.00;100892.03;5246249;28;20020;-78
2021/01/05 10:37:10;;;;;;;37.10;15.23;;;;;;;2.08;100.00;100894.50;5246362;28;20051;-78
2021/01/05 10:39:41;;;;;;;34.53;15.05;;;;;;;2.00;100.00;100898.78;5245812;28;20017;-79
2021/01/05 10:42:11;;;;;;;36.55;14.85;;;;;;;2.15;100.00;100893.69;5246284;28;20020;-78
2021/01/05 10:44:41;;;;;;;33.08;14.40;;;;;;;2.06;100.00;100889.38;5245543;28;20086;-81
2021/01/05 10:47:14;;;;;;;35.95;15.75;;;;;;;2.12;100.00;100894.53;5245952;28;20039;-81
2021/01/05 10:49:44;;;;;;;34.50;15.07;;;;;;;2.30;100.00;100896.31;5245563;28;20477;-79
2021/01/05 10:52:17;;;;;;;39.78;14.65;;;;;;;2.24;100.00;100891.13;5245032;28;20028;-78
2021/01/05 10:54:48;;;;;;;37.55;15.15;;;;;;;2.35;100.00;100897.19;5245358;28;20033;-78
2021/01/05 10:57:19;;;;;;;37.30;15.43;;;;;;;2.20;100.00;100894.56;5245496;28;20108;-78
2021/01/05 10:59:49;;;;;;;32.75;14.55;;;;;;;2.07;100.00;100890.22;5245153;28;20178;-78
2021/01/05 11:02:20;;;;;;;36.10;15.40;;;;;;;1.97;100.00;100894.47;5245459;28;20116;-78
2021/01/05 11:04:50;;;;;;;31.08;15.00;;;;;;;1.90;100.00;100897.03;5245221;28;20039;-82
2021/01/05 11:07:20;;;;;;;35.38;15.50;;;;;;;1.92;100.00;100896.19;5245349;28;20073;-80
2021/01/05 11:09:50;;;;;;;34.45;15.40;;;;;;;2.02;100.00;100882.47;5245599;28;20039;-83
2021/01/05 11:12:25;;;;;;;33.17;14.93;;;;;;;2.07;100.00;100880.78;5245207;28;20114;-82
2021/01/05 11:14:56;;;;;;;40.10;15.45;;;;;;;1.69;100.00;100890.91;5245414;28;20024;-79
2021/01/05 11:17:26;;;;;;;36.65;15.05;;;;;;;1.87;100.00;100882.44;5244743;28;20527;-79
2021/01/05 11:19:56;;;;;;;33.97;15.82;;;;;;;1.75;100.00;100886.66;5245229;28;20099;-78
2021/01/05 11:22:26;;;;;;;35.30;14.75;;;;;;;1.75;100.00;100881.50;5245104;28;20067;-82
2021/01/05 11:24:57;;;;;;;37.22;15.15;;;;;;;1.86;100.00;100875.53;5245186;28;20052;-80
2021/01/05 11:27:27;;;;;;;38.40;14.75;;;;;;;1.98;100.00;100864.44;5245370;28;20039;-79
2021/01/05 11:29:58;;;;;;;33.47;15.57;;;;;;;2.17;100.00;100868.78;5244944;28;20031;-78
2021/01/05 11:32:28;;;;;;;33.95;14.60;;;;;;;2.02;100.00;100858.41;5245267;28;20533;-77
2021/01/05 11:34:58;;;;;;;30.77;14.05;;;;;;;1.99;100.00;100855.84;5241516;28;20109;-80
2021/01/05 11:37:29;;;;;;;35.45;15.00;;;;;;;2.12;100.00;100857.56;5245160;28;20039;-79
2021/01/05 11:40:00;;;;;;;36.70;14.85;;;;;;;2.08;100.00;100855.84;5251296;28;20030;-79
2021/01/05 11:42:30;;;;;;;37.00;14.30;;;;;;;1.98;100.00;100852.38;5245248;28;20032;-78
2021/01/05 11:45:01;;;;;;;38.35;15.75;;;;;;;1.95;100.00;100856.66;5245127;28;20620;-78
2021/01/05 11:47:31;;;;;;;41.50;16.08;;;;;;;2.00;100.00;100853.25;5244998;28;20028;-77